createdAt,value
2019-03-26T00:00:29.838Z,5.80
2019-03-26T00:02:58.565Z,4.70
2019-03-26T00:05:27.359Z,4.77
2019-03-26T00:07:57.540Z,5.30
2019-03-26T00:10:26.265Z,4.70
2019-03-26T00:12:55.056Z,4.00
2019-03-26T00:15:23.898Z,3.73
2019-03-26T00:17:52.797Z,4.23
2019-03-26T00:20:21.708Z,3.80
2019-03-26T00:22:51.031Z,4.07
2019-03-26T00:25:19.816Z,4.47
2019-03-26T00:27:48.535Z,4.63
2019-03-26T00:30:17.945Z,4.13
2019-03-26T00:32:46.756Z,4.17
2019-03-26T00:35:15.613Z,3.87
2019-03-26T00:37:44.440Z,4.00
2019-03-26T00:40:13.455Z,4.73
2019-03-26T00:42:42.348Z,4.10
2019-03-26T00:45:11.542Z,4.00
2019-03-26T00:47:40.259Z,3.30
2019-03-26T00:50:09.737Z,3.60
2019-03-26T00:52:38.577Z,4.67
2019-03-26T00:55:07.907Z,3.70
2019-03-26T00:57:36.703Z,3.40
2019-03-26T01:00:07.794Z,3.30
2019-03-26T01:02:36.789Z,2.70
2019-03-26T01:05:08.827Z,2.67
2019-03-26T01:07:37.605Z,3.77
2019-03-26T01:10:07.353Z,2.63
2019-03-26T01:12:36.285Z,4.30
2019-03-26T01:15:07.429Z,4.10
2019-03-26T01:17:36.186Z,3.67
2019-03-26T01:20:06.436Z,3.90
2019-03-26T01:22:35.533Z,2.90
2019-03-26T01:25:05.424Z,3.37
2019-03-26T01:27:34.417Z,3.80
2019-03-26T01:30:03.817Z,2.97
2019-03-26T01:32:32.585Z,3.00
2019-03-26T01:35:01.400Z,2.23
2019-03-26T01:37:30.169Z,2.63
2019-03-26T01:39:59.004Z,2.60
2019-03-26T01:42:29.292Z,2.67
2019-03-26T01:44:58.219Z,2.30
2019-03-26T01:47:27.004Z,3.23
2019-03-26T01:49:55.825Z,2.67
2019-03-26T01:52:24.647Z,2.33
2019-03-26T01:54:53.420Z,2.90
2019-03-26T01:57:22.192Z,3.13
2019-03-26T01:59:50.946Z,2.50
2019-03-26T02:02:19.741Z,2.83
2019-03-26T02:04:59.313Z,3.17
2019-03-26T02:07:20.337Z,2.60
2019-03-26T02:09:49.077Z,3.27
2019-03-26T02:12:17.801Z,2.30
2019-03-26T02:14:46.579Z,3.10
2019-03-26T02:17:15.402Z,2.27
2019-03-26T02:19:44.293Z,3.37
2019-03-26T02:22:13.162Z,2.90
2019-03-26T02:24:41.840Z,2.60
2019-03-26T02:27:10.609Z,2.63
2019-03-26T02:29:39.475Z,2.50
2019-03-26T02:32:08.254Z,1.80
2019-03-26T02:34:37.069Z,2.70
2019-03-26T02:37:05.738Z,1.83
2019-03-26T02:39:34.649Z,2.37
2019-03-26T02:42:03.896Z,2.70
2019-03-26T02:44:32.701Z,2.10
2019-03-26T02:47:01.509Z,2.47
2019-03-26T02:49:30.653Z,2.70
2019-03-26T02:51:59.407Z,2.57
2019-03-26T02:54:28.168Z,3.83
2019-03-26T02:56:57.055Z,3.00
2019-03-26T02:59:25.817Z,2.50
2019-03-26T03:01:54.623Z,2.73
2019-03-26T03:04:23.356Z,2.63
2019-03-26T03:06:52.182Z,2.23
2019-03-26T03:09:21.244Z,1.90
2019-03-26T03:11:50.097Z,3.03
2019-03-26T03:14:18.920Z,2.53
2019-03-26T03:16:47.827Z,4.00
2019-03-26T03:19:16.518Z,2.97
2019-03-26T03:21:45.277Z,2.70
2019-03-26T03:24:14.195Z,3.23
2019-03-26T03:26:42.982Z,2.50
2019-03-26T03:29:11.871Z,2.57
2019-03-26T03:31:40.813Z,2.60
2019-03-26T03:34:09.513Z,2.47
2019-03-26T03:36:38.358Z,2.93
2019-03-26T03:39:07.925Z,2.10
2019-03-26T03:41:36.751Z,2.20
2019-03-26T03:44:05.635Z,2.73
2019-03-26T03:46:34.757Z,3.17
2019-03-26T03:49:04.167Z,3.13
2019-03-26T03:51:36.084Z,3.17
2019-03-26T03:54:05.047Z,2.30
2019-03-26T03:56:35.224Z,2.93
2019-03-26T03:59:05.194Z,2.27
2019-03-26T04:01:34.077Z,2.80
2019-03-26T04:04:02.863Z,2.53
2019-03-26T04:06:31.687Z,2.77
2019-03-26T04:09:00.540Z,3.20
2019-03-26T04:11:29.509Z,2.03
2019-03-26T04:13:58.382Z,1.90
2019-03-26T04:16:27.161Z,2.40
2019-03-26T04:18:56.003Z,2.70
2019-03-26T04:21:25.183Z,2.80
2019-03-26T04:23:54.246Z,2.87
2019-03-26T04:26:23.063Z,2.63
2019-03-26T04:28:51.873Z,3.53
2019-03-26T04:31:20.724Z,2.73
2019-03-26T04:33:49.537Z,2.57
2019-03-26T04:36:25.543Z,3.23
2019-03-26T04:38:48.772Z,3.07
2019-03-26T04:41:17.521Z,3.00
2019-03-26T04:43:46.442Z,4.03
2019-03-26T04:46:15.349Z,3.17
2019-03-26T04:48:44.217Z,2.83
2019-03-26T04:51:13.127Z,2.70
2019-03-26T04:53:41.895Z,3.37
2019-03-26T04:56:10.644Z,3.50
2019-03-26T04:58:39.484Z,2.87
2019-03-26T05:01:08.238Z,4.20
2019-03-26T05:03:37.158Z,3.20
2019-03-26T05:06:05.899Z,4.73
2019-03-26T05:08:34.592Z,3.43
2019-03-26T05:11:03.332Z,3.50
2019-03-26T05:13:32.136Z,3.10
2019-03-26T05:16:01.395Z,3.10
2019-03-26T05:18:30.185Z,3.63
2019-03-26T05:20:58.935Z,2.60
2019-03-26T05:23:27.822Z,2.80
2019-03-26T05:25:56.559Z,3.03
2019-03-26T05:28:26.152Z,3.10
2019-03-26T05:30:55.027Z,2.90
2019-03-26T05:33:24.582Z,2.77
2019-03-26T05:35:53.398Z,3.90
2019-03-26T05:38:22.191Z,4.23
2019-03-26T05:40:51.090Z,3.87
2019-03-26T05:43:21.272Z,2.27
2019-03-26T05:45:50.178Z,3.20
2019-03-26T05:48:19.136Z,2.90
2019-03-26T05:50:47.741Z,2.80
2019-03-26T05:53:17.451Z,2.80
2019-03-26T05:55:46.286Z,2.73
2019-03-26T05:58:15.121Z,3.67
2019-03-26T06:00:43.993Z,3.47
2019-03-26T06:03:12.837Z,3.73
2019-03-26T06:05:41.602Z,3.20
2019-03-26T06:08:10.395Z,3.40
2019-03-26T06:10:39.249Z,3.73
2019-03-26T06:13:08.033Z,4.17
2019-03-26T06:15:36.784Z,3.53
2019-03-26T06:18:05.568Z,3.10
2019-03-26T06:20:35.762Z,3.10
2019-03-26T06:23:04.459Z,3.67
2019-03-26T06:25:33.308Z,3.33
2019-03-26T06:28:03.536Z,3.10
2019-03-26T06:30:32.566Z,3.47
2019-03-26T06:33:01.488Z,3.30
2019-03-26T06:35:30.260Z,3.23
2019-03-26T06:37:59.097Z,3.37
2019-03-26T06:40:28.110Z,3.90
2019-03-26T06:42:56.931Z,4.10
2019-03-26T06:45:25.689Z,5.00
2019-03-26T06:47:54.484Z,3.43
2019-03-26T06:50:23.304Z,3.73
2019-03-26T06:52:52.052Z,4.87
2019-03-26T06:55:20.770Z,5.13
2019-03-26T06:57:49.607Z,3.87
2019-03-26T07:00:21.193Z,3.27
2019-03-26T07:02:49.970Z,4.17
2019-03-26T07:05:18.764Z,4.73
2019-03-26T07:07:47.659Z,3.23
2019-03-26T07:10:19.245Z,3.53
2019-03-26T07:12:48.105Z,4.73
2019-03-26T07:15:17.059Z,2.67
2019-03-26T07:17:45.819Z,4.80
2019-03-26T07:20:15.031Z,3.40
2019-03-26T07:22:43.971Z,2.73
2019-03-26T07:25:14.450Z,3.23
2019-03-26T07:27:43.280Z,3.40
2019-03-26T07:30:14.009Z,2.60
2019-03-26T07:32:44.066Z,3.47
2019-03-26T07:35:12.772Z,3.20
2019-03-26T07:37:45.394Z,2.00
2019-03-26T07:40:12.754Z,3.50
2019-03-26T07:42:41.642Z,3.20
2019-03-26T07:45:11.032Z,3.97
2019-03-26T07:47:39.905Z,2.77
2019-03-26T07:50:09.061Z,2.90
2019-03-26T07:52:37.857Z,2.97
2019-03-26T07:55:07.749Z,2.87
2019-03-26T07:57:36.752Z,2.93
2019-03-26T08:00:09.052Z,2.63
2019-03-26T08:02:37.878Z,3.00
2019-03-26T08:05:08.499Z,2.93
2019-03-26T08:07:37.948Z,2.80
2019-03-26T08:10:08.438Z,2.97
2019-03-26T08:12:37.339Z,3.13
2019-03-26T08:15:08.807Z,2.83
2019-03-26T08:17:37.730Z,3.07
2019-03-26T08:20:09.015Z,3.27
2019-03-26T08:22:38.782Z,3.20
2019-03-26T08:25:08.380Z,3.40
2019-03-26T08:27:37.474Z,3.83
2019-03-26T08:30:08.148Z,3.73
2019-03-26T08:32:37.374Z,2.50
2019-03-26T08:35:06.568Z,3.23
2019-03-26T08:37:35.320Z,4.23
2019-03-26T08:40:06.898Z,2.97
2019-03-26T08:42:35.684Z,2.80
2019-03-26T08:45:07.010Z,2.80
2019-03-26T08:47:35.800Z,2.80
2019-03-26T08:50:07.091Z,3.07
2019-03-26T08:52:36.524Z,2.40
2019-03-26T08:55:08.191Z,3.13
2019-03-26T08:57:37.056Z,2.17
2019-03-26T09:00:07.843Z,2.17
2019-03-26T09:02:42.031Z,2.60
2019-03-26T09:05:11.143Z,2.10
2019-03-26T09:07:40.541Z,2.03
2019-03-26T09:10:11.100Z,2.77
2019-03-26T09:12:39.956Z,2.63
2019-03-26T09:15:14.031Z,2.73
2019-03-26T09:17:44.106Z,3.07
2019-03-26T09:20:13.550Z,3.60
2019-03-26T09:22:42.420Z,3.20
2019-03-26T09:25:11.471Z,2.40
2019-03-26T09:27:40.203Z,2.60
2019-03-26T09:30:11.694Z,3.40
2019-03-26T09:32:40.500Z,3.23
2019-03-26T09:35:09.963Z,2.47
2019-03-26T09:37:38.678Z,2.53
2019-03-26T09:46:21.039Z,2.00
2019-03-26T09:48:50.027Z,2.20
2019-03-26T09:51:18.857Z,2.27
2019-03-26T09:53:47.642Z,2.57
2019-03-26T09:56:28.086Z,2.40
2019-03-26T09:58:46.905Z,2.60
2019-03-26T10:01:15.667Z,3.33
2019-03-26T10:03:44.516Z,2.10
2019-03-26T10:06:23.454Z,2.60
2019-03-26T10:08:52.480Z,2.13
2019-03-26T10:11:15.720Z,2.27
2019-03-26T10:13:44.637Z,2.50
2019-03-26T10:16:13.528Z,2.60
2019-03-26T10:18:42.380Z,2.57
2019-03-26T10:21:11.164Z,2.10
2019-03-26T10:23:40.064Z,1.63
2019-03-26T10:26:08.892Z,2.43
2019-03-26T10:28:37.699Z,2.20
2019-03-26T10:31:06.592Z,3.53
2019-03-26T10:33:35.508Z,3.37
2019-03-26T10:36:05.411Z,2.93
2019-03-26T10:38:34.618Z,3.30
2019-03-26T10:41:03.461Z,4.03
2019-03-26T10:43:32.254Z,2.83
2019-03-26T10:46:02.397Z,2.60
2019-03-26T10:48:31.987Z,2.30
2019-03-26T10:51:01.842Z,2.70
2019-03-26T10:53:30.629Z,2.00
2019-03-26T10:55:59.452Z,2.73
2019-03-26T10:58:28.394Z,2.80
2019-03-26T11:00:57.267Z,2.70
2019-03-26T11:03:26.028Z,2.13
2019-03-26T11:05:54.819Z,2.80
2019-03-26T11:08:23.599Z,3.03
2019-03-26T11:10:52.409Z,2.73
2019-03-26T11:13:21.200Z,2.50
2019-03-26T11:15:50.140Z,3.00
2019-03-26T11:18:19.119Z,3.30
2019-03-26T11:21:02.656Z,2.93
2019-03-26T11:23:28.012Z,2.80
2019-03-26T11:25:56.811Z,2.90
2019-03-26T11:28:25.840Z,3.10
2019-03-26T11:30:55.080Z,2.20
2019-03-26T11:33:23.899Z,3.20
2019-03-26T11:35:52.723Z,2.87
2019-03-26T11:38:21.609Z,2.80
2019-03-26T11:40:50.418Z,3.10
2019-03-26T11:43:19.258Z,3.27
2019-03-26T11:45:48.080Z,2.80
2019-03-26T11:48:16.912Z,2.37
2019-03-26T11:50:45.709Z,2.77
2019-03-26T11:53:15.060Z,4.10
2019-03-26T11:55:43.845Z,3.00
2019-03-26T11:58:12.556Z,3.10
2019-03-26T12:00:41.424Z,3.77
2019-03-26T12:03:10.337Z,2.97
2019-03-26T12:05:39.220Z,3.80
2019-03-26T12:08:08.097Z,3.20
2019-03-26T12:10:36.920Z,2.40
2019-03-26T12:13:05.781Z,3.37
2019-03-26T12:15:34.682Z,3.40
2019-03-26T12:18:03.585Z,3.13
2019-03-26T12:20:32.250Z,3.23
2019-03-26T12:23:01.020Z,3.10
2019-03-26T12:25:30.085Z,2.40
2019-03-26T12:27:58.911Z,3.83
2019-03-26T12:30:30.634Z,3.10
2019-03-26T12:33:01.289Z,3.07
2019-03-26T12:35:30.684Z,3.10
2019-03-26T12:37:59.725Z,3.27
2019-03-26T12:40:28.609Z,3.30
2019-03-26T12:42:57.806Z,3.10
2019-03-26T12:45:26.555Z,2.93
2019-03-26T12:47:55.427Z,2.30
2019-03-26T12:50:24.231Z,3.10
2019-03-26T12:52:53.077Z,3.40
2019-03-26T12:55:21.909Z,2.20
2019-03-26T12:57:50.747Z,2.23
2019-03-26T13:00:22.339Z,4.00
2019-03-26T13:02:51.041Z,1.80
2019-03-26T13:05:23.059Z,2.60
2019-03-26T13:07:51.026Z,2.70
2019-03-26T13:10:19.852Z,2.10
2019-03-26T13:12:48.764Z,1.80
2019-03-26T13:15:17.500Z,2.20
2019-03-26T13:17:46.366Z,2.30
2019-03-26T13:20:15.554Z,1.97
2019-03-26T13:22:46.078Z,2.27
2019-03-26T13:25:14.976Z,3.57
2019-03-26T13:27:43.951Z,2.63
2019-03-26T13:30:13.571Z,3.73
2019-03-26T13:32:42.470Z,3.00
2019-03-26T13:35:11.833Z,2.83
2019-03-26T13:37:41.954Z,3.07
2019-03-26T13:40:11.728Z,3.23
2019-03-26T13:42:40.542Z,3.90
2019-03-26T13:45:09.742Z,2.93
2019-03-26T13:47:39.966Z,2.50
2019-03-26T13:50:09.701Z,2.50
2019-03-26T13:52:38.663Z,3.50
2019-03-26T13:55:08.868Z,3.43
2019-03-26T13:57:37.710Z,2.73
2019-03-26T14:00:08.360Z,3.00
2019-03-26T14:02:37.146Z,2.90
2019-03-26T14:05:08.802Z,3.23
2019-03-26T14:07:37.668Z,3.00
2019-03-26T14:10:07.349Z,2.67
2019-03-26T14:12:36.100Z,2.80
2019-03-26T14:15:06.459Z,2.53
2019-03-26T14:17:35.231Z,2.13
2019-03-26T14:20:06.961Z,5.23
2019-03-26T14:22:35.871Z,11.40
2019-03-26T14:25:06.513Z,9.33
2019-03-26T14:27:35.307Z,10.27
2019-03-26T14:30:05.882Z,11.63
2019-03-26T14:32:34.758Z,12.80
2019-03-26T14:35:04.755Z,16.10
2019-03-26T14:37:33.577Z,18.57
2019-03-26T14:40:02.440Z,17.63
2019-03-26T14:42:31.216Z,15.87
2019-03-26T14:44:59.948Z,8.53
2019-03-26T14:47:29.327Z,5.50
2019-03-26T14:49:58.125Z,5.70
2019-03-26T14:52:27.564Z,12.43
2019-03-26T14:54:56.393Z,7.33
2019-03-26T14:57:25.281Z,7.50
2019-03-26T14:59:54.126Z,11.30
2019-03-26T15:02:22.969Z,8.73
2019-03-26T15:04:51.809Z,8.50
2019-03-26T15:07:20.687Z,9.80
2019-03-26T15:09:49.461Z,11.40
2019-03-26T15:12:18.251Z,13.83
2019-03-26T15:14:47.137Z,11.70
2019-03-26T15:17:16.387Z,7.90
2019-03-26T15:19:45.307Z,11.10
2019-03-26T15:22:14.129Z,12.03
2019-03-26T15:24:42.994Z,10.23
2019-03-26T15:27:11.902Z,12.77
2019-03-26T15:29:40.634Z,15.87
2019-03-26T15:32:09.413Z,8.13
2019-03-26T15:34:38.309Z,3.83
2019-03-26T15:37:07.143Z,2.93
2019-03-26T15:39:36.508Z,3.30
2019-03-26T15:42:05.832Z,2.70
2019-03-26T16:36:35.790Z,3.17
2019-03-26T16:39:06.781Z,3.67
2019-03-26T16:41:48.073Z,2.93
2019-03-26T16:44:06.146Z,3.60
2019-03-26T16:46:36.436Z,3.37
2019-03-26T16:49:06.319Z,3.40
2019-03-26T16:51:35.224Z,3.67
2019-03-26T16:54:04.083Z,6.40
2019-03-26T16:56:32.900Z,4.60
2019-03-26T16:59:01.797Z,3.20
2019-03-26T17:01:31.182Z,7.60
2019-03-26T17:03:59.964Z,17.20
2019-03-26T17:06:29.076Z,27.07
2019-03-26T17:08:58.044Z,30.50
2019-03-26T17:11:27.815Z,26.67
2019-03-26T17:13:56.587Z,20.00
2019-03-26T17:16:25.559Z,15.77
2019-03-26T17:18:54.430Z,17.10
2019-03-26T17:21:23.343Z,18.33
2019-03-26T17:23:52.217Z,27.27
2019-03-26T17:26:21.175Z,27.43
2019-03-26T17:28:49.893Z,25.47
2019-03-26T17:31:19.941Z,22.50
2019-03-26T17:33:48.916Z,22.93
2019-03-26T17:36:18.458Z,18.10
2019-03-26T17:38:47.213Z,18.03
2019-03-26T17:41:16.555Z,22.00
2019-03-26T17:43:47.099Z,21.37
2019-03-26T17:46:15.949Z,21.13
2019-03-26T17:48:46.178Z,17.30
2019-03-26T17:51:14.941Z,21.63
2019-03-26T17:53:43.967Z,18.87
2019-03-26T17:56:12.973Z,23.47
2019-03-26T17:58:42.510Z,25.43
2019-03-26T18:01:12.435Z,17.30
2019-03-26T18:03:41.342Z,15.50
2019-03-26T18:06:12.087Z,14.93
2019-03-26T18:08:41.083Z,8.43
2019-03-26T18:11:10.463Z,5.97
2019-03-26T18:13:40.683Z,8.30
2019-03-26T18:16:09.448Z,4.70
2019-03-26T18:18:38.483Z,5.40
2019-03-26T18:21:07.341Z,7.50
2019-03-26T18:23:37.371Z,3.93
2019-03-26T18:26:06.310Z,3.80
2019-03-26T18:28:35.460Z,3.80
2019-03-26T18:31:04.594Z,4.93
2019-03-26T18:33:33.517Z,4.20
2019-03-26T18:36:02.541Z,5.10
2019-03-26T18:38:31.351Z,4.80
2019-03-26T18:41:00.242Z,3.90
2019-03-26T18:43:29.096Z,6.40
2019-03-26T18:45:57.952Z,6.43
2019-03-26T18:48:26.860Z,5.40
2019-03-26T18:50:55.766Z,7.97
2019-03-26T18:53:25.593Z,9.60
2019-03-26T18:55:55.944Z,11.60
2019-03-26T18:58:24.769Z,13.27
2019-03-26T19:00:53.605Z,10.67
2019-03-26T19:03:24.544Z,8.10
2019-03-26T19:05:53.661Z,12.10
2019-03-26T19:08:23.095Z,12.90
2019-03-26T19:10:52.522Z,9.83
2019-03-26T19:13:21.394Z,6.80
2019-03-26T19:15:51.074Z,8.50
2019-03-26T19:18:20.000Z,6.97
2019-03-26T19:21:01.389Z,6.57
2019-03-26T19:23:20.567Z,5.27
2019-03-26T19:25:49.434Z,6.23
2019-03-26T19:28:19.463Z,4.57
2019-03-26T19:30:48.689Z,5.10
2019-03-26T19:33:17.534Z,4.83
2019-03-26T19:35:46.420Z,5.70
2019-03-26T19:38:15.327Z,8.13
2019-03-26T19:40:44.190Z,8.37
2019-03-26T19:43:13.058Z,7.00
2019-03-26T19:45:41.890Z,7.50
2019-03-26T19:48:10.753Z,7.20
2019-03-26T19:50:39.733Z,7.07
2019-03-26T19:53:09.664Z,6.77
2019-03-26T19:55:38.510Z,7.40
2019-03-26T19:58:07.903Z,7.50
2019-03-26T20:00:39.323Z,5.80
2019-03-26T20:03:08.227Z,5.07
2019-03-26T20:05:37.170Z,6.00
2019-03-26T20:08:05.997Z,5.53
2019-03-26T20:10:34.847Z,8.53
2019-03-26T20:13:04.645Z,8.37
2019-03-26T20:15:33.712Z,8.00
2019-03-26T20:18:03.486Z,6.67
2019-03-26T20:20:32.400Z,4.87
2019-03-26T20:23:01.282Z,5.40
2019-03-26T20:25:30.194Z,4.10
2019-03-26T20:27:59.181Z,3.97
2019-03-26T20:30:28.536Z,4.03
2019-03-26T20:32:58.911Z,5.60
2019-03-26T20:35:28.354Z,5.57
2019-03-26T20:37:58.218Z,6.63
2019-03-26T20:40:28.433Z,6.63
2019-03-26T20:42:58.342Z,5.47
2019-03-26T20:45:27.170Z,4.60
2019-03-26T20:47:55.991Z,5.50
2019-03-26T20:50:26.398Z,4.73
2019-03-26T20:52:55.381Z,4.33
2019-03-26T20:55:27.098Z,3.83
2019-03-26T20:57:59.477Z,5.20
2019-03-26T21:00:31.135Z,4.97
2019-03-26T21:02:59.871Z,5.37
2019-03-26T21:05:31.773Z,4.60
2019-03-26T21:08:03.433Z,4.43
2019-03-26T21:10:32.338Z,4.43
2019-03-26T21:13:01.692Z,4.20
2019-03-26T21:15:30.635Z,3.80
2019-03-26T21:17:59.498Z,3.60
2019-03-26T21:20:28.336Z,5.30
2019-03-26T21:22:57.234Z,4.27
2019-03-26T21:25:26.049Z,4.67
2019-03-26T21:27:54.947Z,3.20
2019-03-26T21:30:24.222Z,3.27
2019-03-26T21:32:53.028Z,4.83
2019-03-26T21:35:21.894Z,4.47
2019-03-26T21:37:50.836Z,3.37
2019-03-26T21:40:20.052Z,4.33
2019-03-26T21:42:48.933Z,3.77
2019-03-26T21:45:20.771Z,4.10
2019-03-26T21:47:49.818Z,3.57
2019-03-26T21:50:18.884Z,4.27
2019-03-26T21:52:47.956Z,3.90
2019-03-26T21:55:16.812Z,4.27
2019-03-26T21:57:45.702Z,4.87
2019-03-26T22:00:15.140Z,4.33
2019-03-26T22:02:43.996Z,3.77
2019-03-26T22:05:14.607Z,4.63
2019-03-26T22:07:43.550Z,4.70
2019-03-26T22:10:12.852Z,4.27
2019-03-26T22:12:42.228Z,4.03
2019-03-26T22:15:12.257Z,4.30
2019-03-26T22:17:41.075Z,5.60
2019-03-26T22:20:11.789Z,5.27
2019-03-26T22:22:40.661Z,4.60
2019-03-26T22:25:09.832Z,5.67
2019-03-26T22:27:38.603Z,4.77
2019-03-26T22:30:09.814Z,4.93
2019-03-26T22:32:38.683Z,3.90
2019-03-26T22:35:09.326Z,3.90
2019-03-26T22:37:38.322Z,4.50
2019-03-26T22:40:08.241Z,4.43
2019-03-26T22:42:37.022Z,4.60
2019-03-26T22:51:29.624Z,4.40
2019-03-26T22:53:58.409Z,5.77
2019-03-26T22:56:27.238Z,5.37
2019-03-26T22:58:56.155Z,5.90
2019-03-26T23:01:25.086Z,4.83
2019-03-26T23:03:53.976Z,5.67
2019-03-26T23:06:23.172Z,6.83
2019-03-26T23:08:51.979Z,4.83
2019-03-26T23:11:20.827Z,4.70
2019-03-26T23:13:49.612Z,4.03
2019-03-26T23:16:18.513Z,5.47
2019-03-26T23:18:47.421Z,5.50
2019-03-26T23:21:19.635Z,5.13
2019-03-26T23:23:46.882Z,5.00
2019-03-26T23:26:15.734Z,5.13
2019-03-26T23:28:44.550Z,6.00
2019-03-26T23:31:13.809Z,5.60
2019-03-26T23:33:42.875Z,4.60
2019-03-26T23:36:13.182Z,5.97
2019-03-26T23:38:42.117Z,5.43
2019-03-26T23:41:12.484Z,5.60
2019-03-26T23:43:41.347Z,5.40
2019-03-26T23:46:10.265Z,5.30
2019-03-26T23:48:39.123Z,5.20
2019-03-26T23:51:08.077Z,5.13
2019-03-26T23:53:36.865Z,5.60
2019-03-26T23:56:05.968Z,5.90
2019-03-26T23:58:35.258Z,5.90
